sensor_id;sensor_type;location;lat;lon;timestamp;P1;durP1;ratioP1;P2;durP2;ratioP2
3563;SDS011;1796;52.388;13.096;2023-04-21T04:46:35;14.47;;;9.60;;
3563;SDS011;1796;52.388;13.096;2023-04-21T04:49:03;11.70;;;9.17;;
3563;SDS011;1796;52.388;13.096;2023-04-21T04:51:31;20.57;;;9.37;;
3563;SDS011;1796;52.388;13.096;2023-04-21T04:53:58;22.30;;;10.10;;
3563;SDS011;1796;52.388;13.096;2023-04-21T04:56:25;16.27;;;9.67;;
3563;SDS011;1796;52.388;13.096;2023-04-21T04:58:52;12.93;;;9.70;;
3563;SDS011;1796;52.388;13.096;2023-04-21T05:01:18;14.30;;;9.30;;
3563;SDS011;1796;52.388;13.096;2023-04-21T05:03:49;16.53;;;10.20;;
3563;SDS011;1796;52.388;13.096;2023-04-21T05:06:16;16.20;;;9.77;;
3563;SDS011;1796;52.388;13.096;2023-04-21T05:08:45;14.07;;;10.10;;
3563;SDS011;1796;52.388;13.096;2023-04-21T05:11:12;15.40;;;10.40;;
3563;SDS011;1796;52.388;13.096;2023-04-21T05:13:41;20.93;;;10.47;;
3563;SDS011;1796;52.388;13.096;2023-04-21T05:18:44;21.07;;;9.80;;
3563;SDS011;1796;52.388;13.096;2023-04-21T05:21:22;18.80;;;10.57;;
3563;SDS011;1796;52.388;13.096;2023-04-21T05:23:51;16.53;;;9.43;;
3563;SDS011;1796;52.388;13.096;2023-04-21T05:26:19;25.60;;;9.57;;
3563;SDS011;1796;52.388;13.096;2023-04-21T05:28:46;19.40;;;10.30;;
3563;SDS011;1796;52.388;13.096;2023-04-21T05:31:13;18.67;;;10.30;;
3563;SDS011;1796;52.388;13.096;2023-04-21T05:33:40;15.97;;;11.70;;
3563;SDS011;1796;52.388;13.096;2023-04-21T05:36:07;14.97;;;9.73;;
3563;SDS011;1796;52.388;13.096;2023-04-21T05:38:37;12.50;;;9.40;;
3563;SDS011;1796;52.388;13.096;2023-04-21T05:41:05;19.73;;;10.10;;
3563;SDS011;1796;52.388;13.096;2023-04-21T05:43:33;14.97;;;10.03;;
3563;SDS011;1796;52.388;13.096;2023-04-21T05:45:59;16.87;;;10.63;;
3563;SDS011;1796;52.388;13.096;2023-04-21T05:48:28;18.97;;;10.37;;
3563;SDS011;1796;52.388;13.096;2023-04-21T05:51:04;12.80;;;9.90;;
3563;SDS011;1796;52.388;13.096;2023-04-21T06:29:34;23.53;;;10.53;;
3563;SDS011;1796;52.388;13.096;2023-04-21T06:30:23;20.60;;;9.60;;
3563;SDS011;1796;52.388;13.096;2023-04-21T06:33:00;16.20;;;10.47;;
3563;SDS011;1796;52.388;13.096;2023-04-21T06:35:55;21.10;;;11.53;;
3563;SDS011;1796;52.388;13.096;2023-04-21T06:38:36;12.93;;;9.73;;
3563;SDS011;1796;52.388;13.096;2023-04-21T06:41:12;14.17;;;10.60;;
3563;SDS011;1796;52.388;13.096;2023-04-21T07:05:03;16.33;;;10.20;;
3563;SDS011;1796;52.388;13.096;2023-04-21T07:07:30;20.73;;;10.07;;
3563;SDS011;1796;52.388;13.096;2023-04-21T07:09:57;14.40;;;9.63;;
3563;SDS011;1796;52.388;13.096;2023-04-21T07:12:24;15.80;;;10.13;;
3563;SDS011;1796;52.388;13.096;2023-04-21T07:14:51;14.40;;;9.47;;
3563;SDS011;1796;52.388;13.096;2023-04-21T07:17:18;17.30;;;9.80;;
3563;SDS011;1796;52.388;13.096;2023-04-21T07:19:45;14.70;;;10.23;;
3563;SDS011;1796;52.388;13.096;2023-04-21T07:22:13;15.43;;;9.80;;
3563;SDS011;1796;52.388;13.096;2023-04-21T07:24:40;15.30;;;10.40;;
3563;SDS011;1796;52.388;13.096;2023-04-21T07:27:07;10.80;;;9.30;;
3563;SDS011;1796;52.388;13.096;2023-04-21T07:29:34;14.27;;;9.60;;
3563;SDS011;1796;52.388;13.096;2023-04-21T07:32:01;11.30;;;8.30;;
3563;SDS011;1796;52.388;13.096;2023-04-21T07:34:28;13.67;;;9.90;;
3563;SDS011;1796;52.388;13.096;2023-04-21T07:36:55;12.90;;;8.97;;
3563;SDS011;1796;52.388;13.096;2023-04-21T07:39:23;13.00;;;9.93;;
3563;SDS011;1796;52.388;13.096;2023-04-21T07:41:50;12.33;;;10.00;;
3563;SDS011;1796;52.388;13.096;2023-04-21T07:44:18;15.47;;;10.30;;
3563;SDS011;1796;52.388;13.096;2023-04-21T07:46:45;17.87;;;9.60;;
3563;SDS011;1796;52.388;13.096;2023-04-21T07:49:11;16.70;;;9.80;;
3563;SDS011;1796;52.388;13.096;2023-04-21T07:51:38;13.57;;;8.73;;
3563;SDS011;1796;52.388;13.096;2023-04-21T07:54:05;21.40;;;11.20;;
3563;SDS011;1796;52.388;13.096;2023-04-21T07:56:33;15.03;;;9.90;;
3563;SDS011;1796;52.388;13.096;2023-04-21T07:59:01;10.70;;;9.00;;
3563;SDS011;1796;52.388;13.096;2023-04-21T08:01:31;14.60;;;9.80;;
3563;SDS011;1796;52.388;13.096;2023-04-21T08:03:58;14.37;;;9.10;;
3563;SDS011;1796;52.388;13.096;2023-04-21T08:06:25;12.17;;;8.77;;
3563;SDS011;1796;52.388;13.096;2023-04-21T08:09:21;11.57;;;8.80;;
3563;SDS011;1796;52.388;13.096;2023-04-21T08:14:37;16.77;;;9.63;;
3563;SDS011;1796;52.388;13.096;2023-04-21T08:17:27;16.50;;;10.13;;
3563;SDS011;1796;52.388;13.096;2023-04-21T08:19:54;14.90;;;8.60;;
3563;SDS011;1796;52.388;13.096;2023-04-21T08:22:21;18.17;;;9.30;;
3563;SDS011;1796;52.388;13.096;2023-04-21T08:24:48;21.33;;;9.67;;
3563;SDS011;1796;52.388;13.096;2023-04-21T08:27:15;9.70;;;8.70;;
3563;SDS011;1796;52.388;13.096;2023-04-21T08:29:43;13.40;;;9.60;;
3563;SDS011;1796;52.388;13.096;2023-04-21T08:32:10;16.00;;;9.33;;
3563;SDS011;1796;52.388;13.096;2023-04-21T08:34:37;16.93;;;9.30;;
3563;SDS011;1796;52.388;13.096;2023-04-21T08:37:04;15.13;;;9.37;;
3563;SDS011;1796;52.388;13.096;2023-04-21T08:39:31;19.03;;;10.17;;
3563;SDS011;1796;52.388;13.096;2023-04-21T08:41:58;14.40;;;9.97;;
3563;SDS011;1796;52.388;13.096;2023-04-21T08:44:27;14.03;;;9.30;;
3563;SDS011;1796;52.388;13.096;2023-04-21T08:46:55;11.27;;;9.20;;
3563;SDS011;1796;52.388;13.096;2023-04-21T08:49:24;12.63;;;9.50;;
3563;SDS011;1796;52.388;13.096;2023-04-21T08:51:55;11.47;;;8.67;;
3563;SDS011;1796;52.388;13.096;2023-04-21T08:54:22;10.47;;;8.60;;
3563;SDS011;1796;52.388;13.096;2023-04-21T08:56:49;10.73;;;8.30;;
3563;SDS011;1796;52.388;13.096;2023-04-21T08:59:16;10.80;;;8.73;;
3563;SDS011;1796;52.388;13.096;2023-04-21T09:04:33;13.00;;;7.70;;
3563;SDS011;1796;52.388;13.096;2023-04-21T09:07:02;16.30;;;8.60;;
3563;SDS011;1796;52.388;13.096;2023-04-21T09:09:29;11.37;;;9.30;;
3563;SDS011;1796;52.388;13.096;2023-04-21T09:11:57;11.90;;;8.40;;
3563;SDS011;1796;52.388;13.096;2023-04-21T09:14:27;13.07;;;7.53;;
3563;SDS011;1796;52.388;13.096;2023-04-21T09:17:00;12.93;;;7.93;;
3563;SDS011;1796;52.388;13.096;2023-04-21T09:19:29;10.57;;;8.17;;
3563;SDS011;1796;52.388;13.096;2023-04-21T09:21:59;20.40;;;8.27;;
3563;SDS011;1796;52.388;13.096;2023-04-21T09:24:26;21.33;;;8.40;;
3563;SDS011;1796;52.388;13.096;2023-04-21T09:26:53;14.23;;;7.23;;
3563;SDS011;1796;52.388;13.096;2023-04-21T09:29:21;12.17;;;7.90;;
3563;SDS011;1796;52.388;13.096;2023-04-21T09:31:48;8.73;;;7.27;;
3563;SDS011;1796;52.388;13.096;2023-04-21T09:34:19;20.40;;;7.70;;
3563;SDS011;1796;52.388;13.096;2023-04-21T09:36:51;12.53;;;7.53;;
3563;SDS011;1796;52.388;13.096;2023-04-21T09:39:25;14.77;;;6.90;;
3563;SDS011;1796;52.388;13.096;2023-04-21T09:41:53;32.17;;;8.03;;
3563;SDS011;1796;52.388;13.096;2023-04-21T09:44:21;9.40;;;7.03;;
3563;SDS011;1796;52.388;13.096;2023-04-21T09:46:48;10.90;;;6.90;;
3563;SDS011;1796;52.388;13.096;2023-04-21T09:49:16;11.67;;;7.70;;
3563;SDS011;1796;52.388;13.096;2023-04-21T09:51:43;14.80;;;8.27;;
3563;SDS011;1796;52.388;13.096;2023-04-21T09:54:14;17.30;;;7.40;;
3563;SDS011;1796;52.388;13.096;2023-04-21T09:56:42;12.80;;;7.27;;
3563;SDS011;1796;52.388;13.096;2023-04-21T09:59:15;11.83;;;6.70;;
3563;SDS011;1796;52.388;13.096;2023-04-21T10:01:45;11.37;;;7.27;;
3563;SDS011;1796;52.388;13.096;2023-04-21T10:04:14;7.13;;;6.43;;
3563;SDS011;1796;52.388;13.096;2023-04-21T10:06:43;16.70;;;6.97;;
3563;SDS011;1796;52.388;13.096;2023-04-21T10:09:13;13.00;;;7.60;;
3563;SDS011;1796;52.388;13.096;2023-04-21T10:11:43;11.00;;;7.40;;
3563;SDS011;1796;52.388;13.096;2023-04-21T10:14:10;10.10;;;7.70;;
3563;SDS011;1796;52.388;13.096;2023-04-21T10:16:38;13.83;;;7.50;;
3563;SDS011;1796;52.388;13.096;2023-04-21T10:21:49;10.13;;;7.13;;
3563;SDS011;1796;52.388;13.096;2023-04-21T10:24:18;13.63;;;6.40;;
3563;SDS011;1796;52.388;13.096;2023-04-21T10:26:45;9.10;;;6.50;;
3563;SDS011;1796;52.388;13.096;2023-04-21T10:29:15;9.20;;;6.40;;
3563;SDS011;1796;52.388;13.096;2023-04-21T10:31:53;14.63;;;6.83;;
3563;SDS011;1796;52.388;13.096;2023-04-21T10:34:21;10.53;;;6.37;;
3563;SDS011;1796;52.388;13.096;2023-04-21T10:39:53;15.30;;;6.43;;
3563;SDS011;1796;52.388;13.096;2023-04-21T10:42:24;9.00;;;7.13;;
3563;SDS011;1796;52.388;13.096;2023-04-21T10:44:59;11.47;;;6.57;;
3563;SDS011;1796;52.388;13.096;2023-04-21T10:47:36;12.33;;;6.97;;
3563;SDS011;1796;52.388;13.096;2023-04-21T10:50:18;9.43;;;7.17;;
3563;SDS011;1796;52.388;13.096;2023-04-21T10:52:51;8.03;;;6.37;;
3563;SDS011;1796;52.388;13.096;2023-04-21T10:55:21;9.77;;;7.60;;
3563;SDS011;1796;52.388;13.096;2023-04-21T10:57:51;9.87;;;6.57;;
3563;SDS011;1796;52.388;13.096;2023-04-21T11:00:20;15.03;;;6.57;;
3563;SDS011;1796;52.388;13.096;2023-04-21T11:02:55;9.17;;;7.43;;
3563;SDS011;1796;52.388;13.096;2023-04-21T11:05:26;10.40;;;6.80;;
3563;SDS011;1796;52.388;13.096;2023-04-21T11:08:01;12.53;;;7.13;;
3563;SDS011;1796;52.388;13.096;2023-04-21T11:13:25;11.10;;;7.20;;
3563;SDS011;1796;52.388;13.096;2023-04-21T11:16:01;12.00;;;6.43;;
3563;SDS011;1796;52.388;13.096;2023-04-21T11:18:31;9.27;;;7.50;;
3563;SDS011;1796;52.388;13.096;2023-04-21T11:21:06;16.40;;;6.80;;
3563;SDS011;1796;52.388;13.096;2023-04-21T11:23:40;15.90;;;6.47;;
3563;SDS011;1796;52.388;13.096;2023-04-21T11:26:14;37.27;;;8.57;;
3563;SDS011;1796;52.388;13.096;2023-04-21T11:28:41;9.47;;;7.07;;
3563;SDS011;1796;52.388;13.096;2023-04-21T11:31:08;8.97;;;6.97;;
3563;SDS011;1796;52.388;13.096;2023-04-21T11:33:36;21.30;;;6.67;;
3563;SDS011;1796;52.388;13.096;2023-04-21T11:36:04;10.10;;;6.33;;
3563;SDS011;1796;52.388;13.096;2023-04-21T11:38:38;7.90;;;6.60;;
3563;SDS011;1796;52.388;13.096;2023-04-21T11:41:05;13.40;;;7.70;;
3563;SDS011;1796;52.388;13.096;2023-04-21T11:43:36;11.50;;;6.70;;
3563;SDS011;1796;52.388;13.096;2023-04-21T11:46:15;7.13;;;6.00;;
3563;SDS011;1796;52.388;13.096;2023-04-21T11:48:43;11.20;;;5.53;;
3563;SDS011;1796;52.388;13.096;2023-04-21T11:51:14;12.23;;;6.00;;
3563;SDS011;1796;52.388;13.096;2023-04-21T11:53:42;6.67;;;5.57;;
3563;SDS011;1796;52.388;13.096;2023-04-21T11:56:15;13.33;;;6.70;;
3563;SDS011;1796;52.388;13.096;2023-04-21T11:58:44;7.97;;;6.47;;
3563;SDS011;1796;52.388;13.096;2023-04-21T12:01:14;7.20;;;6.40;;
3563;SDS011;1796;52.388;13.096;2023-04-21T12:03:41;9.47;;;6.67;;
3563;SDS011;1796;52.388;13.096;2023-04-21T12:06:08;8.07;;;7.07;;
3563;SDS011;1796;52.388;13.096;2023-04-21T12:08:34;6.83;;;6.13;;
3563;SDS011;1796;52.388;13.096;2023-04-21T12:11:01;6.37;;;5.70;;
3563;SDS011;1796;52.388;13.096;2023-04-21T12:13:28;9.87;;;5.33;;
3563;SDS011;1796;52.388;13.096;2023-04-21T12:15:57;11.53;;;5.90;;
3563;SDS011;1796;52.388;13.096;2023-04-21T12:18:28;8.50;;;5.73;;
3563;SDS011;1796;52.388;13.096;2023-04-21T12:20:59;10.23;;;5.80;;
3563;SDS011;1796;52.388;13.096;2023-04-21T12:23:27;9.53;;;7.00;;
3563;SDS011;1796;52.388;13.096;2023-04-21T12:25:54;18.90;;;6.97;;
3563;SDS011;1796;52.388;13.096;2023-04-21T12:28:21;7.47;;;6.60;;
3563;SDS011;1796;52.388;13.096;2023-04-21T12:30:47;8.13;;;6.53;;
3563;SDS011;1796;52.388;13.096;2023-04-21T12:33:16;8.63;;;6.47;;
3563;SDS011;1796;52.388;13.096;2023-04-21T12:35:43;9.33;;;6.40;;
3563;SDS011;1796;52.388;13.096;2023-04-21T12:38:10;7.73;;;6.80;;
3563;SDS011;1796;52.388;13.096;2023-04-21T12:40:37;15.47;;;6.70;;
3563;SDS011;1796;52.388;13.096;2023-04-21T12:43:04;9.27;;;7.00;;
3563;SDS011;1796;52.388;13.096;2023-04-21T12:45:31;7.67;;;6.50;;
3563;SDS011;1796;52.388;13.096;2023-04-21T12:47:58;8.03;;;6.27;;
3563;SDS011;1796;52.388;13.096;2023-04-21T12:50:27;7.03;;;6.40;;
3563;SDS011;1796;52.388;13.096;2023-04-21T12:52:54;11.63;;;6.87;;
3563;SDS011;1796;52.388;13.096;2023-04-21T12:55:21;7.03;;;6.43;;
3563;SDS011;1796;52.388;13.096;2023-04-21T12:57:48;8.93;;;7.07;;
3563;SDS011;1796;52.388;13.096;2023-04-21T13:00:16;7.70;;;6.63;;
3563;SDS011;1796;52.388;13.096;2023-04-21T13:02:44;16.33;;;7.27;;
3563;SDS011;1796;52.388;13.096;2023-04-21T13:05:11;15.50;;;7.13;;
3563;SDS011;1796;52.388;13.096;2023-04-21T13:07:40;9.10;;;6.40;;
3563;SDS011;1796;52.388;13.096;2023-04-21T13:10:07;7.93;;;5.90;;
3563;SDS011;1796;52.388;13.096;2023-04-21T13:12:35;10.10;;;5.67;;
3563;SDS011;1796;52.388;13.096;2023-04-21T13:15:02;10.20;;;7.20;;
3563;SDS011;1796;52.388;13.096;2023-04-21T13:17:30;9.57;;;6.50;;
3563;SDS011;1796;52.388;13.096;2023-04-21T13:19:56;10.13;;;6.50;;
3563;SDS011;1796;52.388;13.096;2023-04-21T13:22:23;7.63;;;6.90;;
3563;SDS011;1796;52.388;13.096;2023-04-21T13:24:52;7.90;;;6.47;;
3563;SDS011;1796;52.388;13.096;2023-04-21T13:27:19;7.93;;;5.73;;
3563;SDS011;1796;52.388;13.096;2023-04-21T13:29:45;6.53;;;5.70;;
3563;SDS011;1796;52.388;13.096;2023-04-21T13:32:13;6.33;;;5.83;;
3563;SDS011;1796;52.388;13.096;2023-04-21T13:34:40;15.03;;;6.20;;
3563;SDS011;1796;52.388;13.096;2023-04-21T13:37:07;10.00;;;6.50;;
3563;SDS011;1796;52.388;13.096;2023-04-21T13:39:36;10.30;;;6.60;;
3563;SDS011;1796;52.388;13.096;2023-04-21T13:42:05;9.50;;;6.40;;
3563;SDS011;1796;52.388;13.096;2023-04-21T13:44:32;7.47;;;6.47;;
3563;SDS011;1796;52.388;13.096;2023-04-21T13:46:59;8.87;;;6.57;;
3563;SDS011;1796;52.388;13.096;2023-04-21T13:49:25;9.03;;;7.23;;
3563;SDS011;1796;52.388;13.096;2023-04-21T13:51:52;7.50;;;6.10;;
3563;SDS011;1796;52.388;13.096;2023-04-21T13:54:19;10.50;;;6.17;;
3563;SDS011;1796;52.388;13.096;2023-04-21T13:56:46;9.50;;;6.30;;
3563;SDS011;1796;52.388;13.096;2023-04-21T13:59:15;7.00;;;5.80;;
3563;SDS011;1796;52.388;13.096;2023-04-21T14:01:41;8.20;;;5.80;;
3563;SDS011;1796;52.388;13.096;2023-04-21T14:04:08;8.20;;;5.40;;
3563;SDS011;1796;52.388;13.096;2023-04-21T14:06:35;7.90;;;6.00;;
3563;SDS011;1796;52.388;13.096;2023-04-21T14:09:02;9.30;;;6.30;;
3563;SDS011;1796;52.388;13.096;2023-04-21T14:11:30;7.00;;;5.80;;
3563;SDS011;1796;52.388;13.096;2023-04-21T14:13:57;28.47;;;6.70;;
3563;SDS011;1796;52.388;13.096;2023-04-21T14:16:25;12.27;;;6.00;;
3563;SDS011;1796;52.388;13.096;2023-04-21T14:18:52;12.57;;;6.50;;
3563;SDS011;1796;52.388;13.096;2023-04-21T14:21:19;9.00;;;5.93;;
3563;SDS011;1796;52.388;13.096;2023-04-21T14:23:46;7.43;;;5.27;;
3563;SDS011;1796;52.388;13.096;2023-04-21T14:26:13;5.70;;;5.10;;
3563;SDS011;1796;52.388;13.096;2023-04-21T14:28:40;5.77;;;5.17;;
3563;SDS011;1796;52.388;13.096;2023-04-21T14:31:07;7.10;;;5.10;;
3563;SDS011;1796;52.388;13.096;2023-04-21T14:33:35;8.53;;;5.53;;
3563;SDS011;1796;52.388;13.096;2023-04-21T14:36:02;14.23;;;5.77;;
3563;SDS011;1796;52.388;13.096;2023-04-21T14:38:29;6.17;;;5.57;;
3563;SDS011;1796;52.388;13.096;2023-04-21T14:40:58;5.40;;;5.00;;
3563;SDS011;1796;52.388;13.096;2023-04-21T14:43:25;5.87;;;5.37;;
3563;SDS011;1796;52.388;13.096;2023-04-21T14:45:51;8.67;;;5.33;;
3563;SDS011;1796;52.388;13.096;2023-04-21T14:48:19;7.87;;;5.53;;
3563;SDS011;1796;52.388;13.096;2023-04-21T14:50:47;6.23;;;5.63;;
3563;SDS011;1796;52.388;13.096;2023-04-21T14:53:14;10.80;;;5.30;;
3563;SDS011;1796;52.388;13.096;2023-04-21T14:55:41;10.40;;;6.10;;
3563;SDS011;1796;52.388;13.096;2023-04-21T14:58:08;11.40;;;6.10;;
3563;SDS011;1796;52.388;13.096;2023-04-21T15:00:35;6.83;;;5.00;;
3563;SDS011;1796;52.388;13.096;2023-04-21T15:03:02;6.87;;;5.67;;
3563;SDS011;1796;52.388;13.096;2023-04-21T15:05:29;7.40;;;5.77;;
3563;SDS011;1796;52.388;13.096;2023-04-21T15:07:59;6.57;;;5.40;;
3563;SDS011;1796;52.388;13.096;2023-04-21T15:10:26;6.97;;;5.77;;
3563;SDS011;1796;52.388;13.096;2023-04-21T15:12:56;12.27;;;5.40;;
3563;SDS011;1796;52.388;13.096;2023-04-21T15:15:23;5.73;;;5.20;;
3563;SDS011;1796;52.388;13.096;2023-04-21T15:17:50;5.47;;;4.97;;
3563;SDS011;1796;52.388;13.096;2023-04-21T15:20:17;6.00;;;5.33;;
3563;SDS011;1796;52.388;13.096;2023-04-21T15:22:44;9.20;;;5.03;;
3563;SDS011;1796;52.388;13.096;2023-04-21T15:25:12;6.13;;;5.20;;
3563;SDS011;1796;52.388;13.096;2023-04-21T15:27:39;6.47;;;5.50;;
3563;SDS011;1796;52.388;13.096;2023-04-21T15:30:06;8.43;;;5.63;;
3563;SDS011;1796;52.388;13.096;2023-04-21T15:32:34;7.17;;;5.17;;
3563;SDS011;1796;52.388;13.096;2023-04-21T15:35:00;7.47;;;5.77;;
3563;SDS011;1796;52.388;13.096;2023-04-21T15:37:27;12.27;;;5.70;;
3563;SDS011;1796;52.388;13.096;2023-04-21T15:39:54;8.27;;;6.37;;
3563;SDS011;1796;52.388;13.096;2023-04-21T15:42:23;7.33;;;5.83;;
3563;SDS011;1796;52.388;13.096;2023-04-21T15:44:50;6.40;;;5.33;;
3563;SDS011;1796;52.388;13.096;2023-04-21T15:47:17;9.70;;;6.60;;
3563;SDS011;1796;52.388;13.096;2023-04-21T15:49:44;12.67;;;5.40;;
3563;SDS011;1796;52.388;13.096;2023-04-21T15:52:11;5.90;;;4.77;;
3563;SDS011;1796;52.388;13.096;2023-04-21T15:54:38;12.10;;;5.63;;
3563;SDS011;1796;52.388;13.096;2023-04-21T15:57:05;6.03;;;5.10;;
3563;SDS011;1796;52.388;13.096;2023-04-21T15:59:33;9.40;;;5.50;;
3563;SDS011;1796;52.388;13.096;2023-04-21T16:02:00;6.33;;;5.73;;
3563;SDS011;1796;52.388;13.096;2023-04-21T16:04:27;5.33;;;4.83;;
3563;SDS011;1796;52.388;13.096;2023-04-21T16:06:56;5.40;;;4.90;;
3563;SDS011;1796;52.388;13.096;2023-04-21T16:09:22;7.20;;;5.63;;
3563;SDS011;1796;52.388;13.096;2023-04-21T16:11:49;7.30;;;5.60;;
3563;SDS011;1796;52.388;13.096;2023-04-21T16:14:16;6.53;;;5.23;;
3563;SDS011;1796;52.388;13.096;2023-04-21T16:16:45;7.10;;;5.27;;
3563;SDS011;1796;52.388;13.096;2023-04-21T16:19:11;6.30;;;5.33;;
3563;SDS011;1796;52.388;13.096;2023-04-21T16:21:38;5.87;;;5.00;;
3563;SDS011;1796;52.388;13.096;2023-04-21T16:24:06;7.30;;;4.83;;
3563;SDS011;1796;52.388;13.096;2023-04-21T16:26:39;7.30;;;5.20;;
3563;SDS011;1796;52.388;13.096;2023-04-21T16:29:06;7.43;;;5.40;;
3563;SDS011;1796;52.388;13.096;2023-04-21T16:31:32;8.73;;;5.00;;
3563;SDS011;1796;52.388;13.096;2023-04-21T16:34:01;10.07;;;5.40;;
3563;SDS011;1796;52.388;13.096;2023-04-21T16:36:28;21.33;;;5.50;;
3563;SDS011;1796;52.388;13.096;2023-04-21T16:38:55;7.57;;;5.80;;
3563;SDS011;1796;52.388;13.096;2023-04-21T16:41:22;18.43;;;5.63;;
3563;SDS011;1796;52.388;13.096;2023-04-21T16:43:49;13.07;;;5.63;;
3563;SDS011;1796;52.388;13.096;2023-04-21T16:46:16;13.60;;;6.17;;
3563;SDS011;1796;52.388;13.096;2023-04-21T16:48:43;9.83;;;4.97;;
3563;SDS011;1796;52.388;13.096;2023-04-21T16:51:12;5.53;;;5.00;;
3563;SDS011;1796;52.388;13.096;2023-04-21T16:53:39;7.70;;;5.47;;
3563;SDS011;1796;52.388;13.096;2023-04-21T16:56:06;7.33;;;5.37;;
3563;SDS011;1796;52.388;13.096;2023-04-21T16:58:33;9.87;;;5.70;;
3563;SDS011;1796;52.388;13.096;2023-04-21T17:01:01;11.17;;;5.43;;
3563;SDS011;1796;52.388;13.096;2023-04-21T17:03:28;7.87;;;4.97;;
3563;SDS011;1796;52.388;13.096;2023-04-21T17:05:55;7.20;;;5.60;;
3563;SDS011;1796;52.388;13.096;2023-04-21T17:08:23;6.03;;;5.37;;
3563;SDS011;1796;52.388;13.096;2023-04-21T17:10:50;11.63;;;5.67;;
3563;SDS011;1796;52.388;13.096;2023-04-21T17:13:19;10.77;;;4.70;;
3563;SDS011;1796;52.388;13.096;2023-04-21T17:15:46;8.20;;;5.20;;
3563;SDS011;1796;52.388;13.096;2023-04-21T17:18:13;9.07;;;5.30;;
3563;SDS011;1796;52.388;13.096;2023-04-21T17:20:40;10.27;;;4.83;;
3563;SDS011;1796;52.388;13.096;2023-04-21T17:23:06;5.37;;;4.63;;
3563;SDS011;1796;52.388;13.096;2023-04-21T17:25:35;5.47;;;4.60;;
3563;SDS011;1796;52.388;13.096;2023-04-21T17:28:02;13.00;;;5.97;;
3563;SDS011;1796;52.388;13.096;2023-04-21T17:30:30;6.30;;;5.30;;
3563;SDS011;1796;52.388;13.096;2023-04-21T17:32:59;10.47;;;6.30;;
3563;SDS011;1796;52.388;13.096;2023-04-21T17:35:26;5.43;;;4.57;;
3563;SDS011;1796;52.388;13.096;2023-04-21T17:37:53;6.13;;;4.53;;
3563;SDS011;1796;52.388;13.096;2023-04-21T17:40:20;7.03;;;4.90;;
3563;SDS011;1796;52.388;13.096;2023-04-21T17:42:48;7.23;;;4.93;;
3563;SDS011;1796;52.388;13.096;2023-04-21T17:45:15;10.20;;;4.90;;
3563;SDS011;1796;52.388;13.096;2023-04-21T17:47:42;8.97;;;4.83;;
3563;SDS011;1796;52.388;13.096;2023-04-21T17:50:09;6.77;;;5.10;;
3563;SDS011;1796;52.388;13.096;2023-04-21T17:52:37;6.67;;;4.50;;
3563;SDS011;1796;52.388;13.096;2023-04-21T17:55:04;6.37;;;5.43;;
3563;SDS011;1796;52.388;13.096;2023-04-21T17:57:31;6.00;;;5.20;;
3563;SDS011;1796;52.388;13.096;2023-04-21T17:59:59;6.70;;;4.67;;
3563;SDS011;1796;52.388;13.096;2023-04-21T18:02:31;6.30;;;4.50;;
3563;SDS011;1796;52.388;13.096;2023-04-21T18:04:57;5.57;;;4.90;;
3563;SDS011;1796;52.388;13.096;2023-04-21T18:07:24;5.87;;;4.57;;
3563;SDS011;1796;52.388;13.096;2023-04-21T18:09:51;9.87;;;5.70;;
3563;SDS011;1796;52.388;13.096;2023-04-21T18:12:18;17.63;;;4.80;;
3563;SDS011;1796;52.388;13.096;2023-04-21T18:14:45;7.37;;;5.63;;
3563;SDS011;1796;52.388;13.096;2023-04-21T18:17:13;6.30;;;5.13;;
3563;SDS011;1796;52.388;13.096;2023-04-21T18:19:40;5.40;;;4.37;;
3563;SDS011;1796;52.388;13.096;2023-04-21T18:22:07;7.20;;;5.07;;
3563;SDS011;1796;52.388;13.096;2023-04-21T18:24:34;5.70;;;4.87;;
3563;SDS011;1796;52.388;13.096;2023-04-21T18:27:01;5.43;;;4.83;;
3563;SDS011;1796;52.388;13.096;2023-04-21T18:29:28;8.70;;;5.60;;
3563;SDS011;1796;52.388;13.096;2023-04-21T18:31:55;7.93;;;5.53;;
3563;SDS011;1796;52.388;13.096;2023-04-21T18:34:23;6.20;;;5.60;;
3563;SDS011;1796;52.388;13.096;2023-04-21T18:36:50;8.40;;;5.40;;
3563;SDS011;1796;52.388;13.096;2023-04-21T18:39:17;13.83;;;5.67;;
3563;SDS011;1796;52.388;13.096;2023-04-21T18:41:44;5.80;;;5.07;;
3563;SDS011;1796;52.388;13.096;2023-04-21T18:44:12;9.00;;;5.00;;
3563;SDS011;1796;52.388;13.096;2023-04-21T18:46:40;6.53;;;5.27;;
3563;SDS011;1796;52.388;13.096;2023-04-21T18:49:07;9.03;;;5.60;;
3563;SDS011;1796;52.388;13.096;2023-04-21T18:51:35;7.60;;;5.47;;
3563;SDS011;1796;52.388;13.096;2023-04-21T18:54:02;14.83;;;5.07;;
3563;SDS011;1796;52.388;13.096;2023-04-21T18:56:29;7.10;;;5.77;;
3563;SDS011;1796;52.388;13.096;2023-04-21T18:58:56;9.40;;;5.63;;
3563;SDS011;1796;52.388;13.096;2023-04-21T19:01:23;13.70;;;5.20;;
3563;SDS011;1796;52.388;13.096;2023-04-21T19:03:50;6.07;;;5.57;;
3563;SDS011;1796;52.388;13.096;2023-04-21T19:06:17;6.57;;;5.40;;
3563;SDS011;1796;52.388;13.096;2023-04-21T19:08:46;12.53;;;5.43;;
3563;SDS011;1796;52.388;13.096;2023-04-21T19:11:15;8.93;;;6.00;;
3563;SDS011;1796;52.388;13.096;2023-04-21T19:13:42;7.07;;;5.47;;
3563;SDS011;1796;52.388;13.096;2023-04-21T19:16:09;9.43;;;5.60;;
3563;SDS011;1796;52.388;13.096;2023-04-21T19:18:36;6.03;;;5.27;;
3563;SDS011;1796;52.388;13.096;2023-04-21T19:21:03;6.53;;;5.93;;
3563;SDS011;1796;52.388;13.096;2023-04-21T19:23:31;6.33;;;5.40;;
3563;SDS011;1796;52.388;13.096;2023-04-21T19:25:59;11.07;;;5.90;;
3563;SDS011;1796;52.388;13.096;2023-04-21T19:28:29;10.37;;;5.20;;
3563;SDS011;1796;52.388;13.096;2023-04-21T19:30:56;9.23;;;5.00;;
3563;SDS011;1796;52.388;13.096;2023-04-21T19:33:23;8.90;;;5.40;;
3563;SDS011;1796;52.388;13.096;2023-04-21T19:35:50;6.67;;;5.57;;
3563;SDS011;1796;52.388;13.096;2023-04-21T19:38:17;9.53;;;4.83;;
3563;SDS011;1796;52.388;13.096;2023-04-21T19:40:44;8.80;;;6.10;;
3563;SDS011;1796;52.388;13.096;2023-04-21T19:43:13;8.20;;;6.00;;
3563;SDS011;1796;52.388;13.096;2023-04-21T19:45:39;5.13;;;4.63;;
3563;SDS011;1796;52.388;13.096;2023-04-21T19:48:07;7.00;;;5.73;;
3563;SDS011;1796;52.388;13.096;2023-04-21T19:50:34;6.30;;;5.37;;
3563;SDS011;1796;52.388;13.096;2023-04-21T19:53:01;8.27;;;5.70;;
3563;SDS011;1796;52.388;13.096;2023-04-21T19:55:28;8.57;;;5.73;;
3563;SDS011;1796;52.388;13.096;2023-04-21T19:57:55;11.30;;;5.97;;
3563;SDS011;1796;52.388;13.096;2023-04-21T20:00:24;6.93;;;5.80;;
3563;SDS011;1796;52.388;13.096;2023-04-21T20:02:51;6.70;;;5.10;;
3563;SDS011;1796;52.388;13.096;2023-04-21T20:05:17;8.63;;;5.20;;
3563;SDS011;1796;52.388;13.096;2023-04-21T20:07:44;9.63;;;6.23;;
3563;SDS011;1796;52.388;13.096;2023-04-21T20:10:11;9.63;;;5.30;;
3563;SDS011;1796;52.388;13.096;2023-04-21T20:12:38;14.20;;;5.47;;
3563;SDS011;1796;52.388;13.096;2023-04-21T20:15:05;5.77;;;5.27;;
3563;SDS011;1796;52.388;13.096;2023-04-21T20:17:34;6.13;;;5.53;;
3563;SDS011;1796;52.388;13.096;2023-04-21T20:20:01;8.80;;;5.43;;
3563;SDS011;1796;52.388;13.096;2023-04-21T20:22:31;8.00;;;5.57;;
3563;SDS011;1796;52.388;13.096;2023-04-21T20:24:57;11.33;;;5.43;;
3563;SDS011;1796;52.388;13.096;2023-04-21T20:27:24;6.53;;;5.83;;
3563;SDS011;1796;52.388;13.096;2023-04-21T20:29:52;7.23;;;5.23;;
3563;SDS011;1796;52.388;13.096;2023-04-21T20:32:18;5.70;;;5.20;;
3563;SDS011;1796;52.388;13.096;2023-04-21T20:34:47;13.33;;;5.10;;
3563;SDS011;1796;52.388;13.096;2023-04-21T20:37:13;11.70;;;5.73;;
3563;SDS011;1796;52.388;13.096;2023-04-21T20:39:41;9.20;;;5.63;;
3563;SDS011;1796;52.388;13.096;2023-04-21T20:42:10;5.67;;;5.23;;
3563;SDS011;1796;52.388;13.096;2023-04-21T20:44:37;9.27;;;5.70;;
3563;SDS011;1796;52.388;13.096;2023-04-21T20:47:06;6.27;;;4.93;;
3563;SDS011;1796;52.388;13.096;2023-04-21T20:49:33;9.60;;;5.37;;
3563;SDS011;1796;52.388;13.096;2023-04-21T20:52:01;6.50;;;5.33;;
3563;SDS011;1796;52.388;13.096;2023-04-21T20:54:28;11.10;;;5.93;;
3563;SDS011;1796;52.388;13.096;2023-04-21T20:56:55;7.70;;;5.23;;